Time;durP1;ratioP1;P1;durP2;ratioP2;P2;SDS_P1;SDS_P2;PMS_P1;PMS_P2;Temp;Humidity;BMP_temperature;BMP_pressure;BME280_temperature;BME280_humidity;BME280_pressure;Samples;Min_cycle;Max_cycle;Signal;HPM_P1;HPM_P2
2022/01/25 00:28:39;;;;;;;;;;;5.00;79.20;;;;;;5094792;28;19916;-88
2022/01/25 00:31:13;;;;;;;;;;;4.90;79.40;;;;;;5095203;28;19909;-88
2022/01/25 00:33:43;;;;;;;;;;;4.90;79.70;;;;;;5075215;28;19912;-89
2022/01/25 00:36:11;;;;;;;;;;;5.00;80.30;;;;;;5074874;28;19940;-88
2022/01/25 00:38:37;;;;;;;;;;;5.00;80.30;;;;;;5092767;28;19962;-88
2022/01/25 00:41:02;;;;;;;;;;;5.10;79.80;;;;;;5094873;28;20259;-88
2022/01/25 00:43:28;;;;;;;;;;;5.10;79.40;;;;;;5094656;28;19912;-88
2022/01/25 00:45:58;;;;;;;;;;;5.10;79.10;;;;;;5094814;28;19942;-88
2022/01/25 00:52:18;;;;;;;;;;;4.90;79.40;;;;;;5094855;28;19908;-88
2022/01/25 00:54:26;;;;;;;;;;;4.90;79.60;;;;;;5056816;28;19916;-88
2022/01/25 00:56:52;;;;;;;;;;;4.90;80.20;;;;;;5078180;28;19912;-88
2022/01/25 00:59:25;;;;;;;;;;;4.90;80.30;;;;;;5093774;28;19912;-88
2022/01/25 01:01:52;;;;;;;;;;;4.80;80.50;;;;;;5094565;28;19912;-88
2022/01/25 01:04:18;;;;;;;;;;;4.80;80.60;;;;;;5094606;28;19954;-88
2022/01/25 01:06:45;;;;;;;;;;;4.80;80.50;;;;;;5094130;28;19941;-88
2022/01/25 01:09:12;;;;;;;;;;;4.90;80.10;;;;;;5094206;28;19908;-88
2022/01/25 01:11:48;;;;;;;;;;;4.90;80.30;;;;;;5093865;28;19915;-88
2022/01/25 01:14:51;;;;;;;;;;;5.00;80.20;;;;;;5093941;28;19919;-88
2022/01/25 01:28:51;;;;;;;;;;;5.10;80.10;;;;;;5096051;28;19908;-88
2022/01/25 01:31:08;;;;;;;;;;;4.80;78.70;;;;;;5094054;28;19931;-88
2022/01/25 01:44:25;;;;;;;;;;;4.80;79.50;;;;;;5093902;28;20418;-88
2022/01/25 01:47:08;;;;;;;;;;;4.90;79.80;;;;;;5092442;28;19911;-88
2022/01/25 01:49:43;;;;;;;;;;;5.00;79.20;;;;;;5073730;28;19995;-88
2022/01/25 01:52:09;;;;;;;;;;;5.10;78.80;;;;;;5073457;28;19908;-88
2022/01/25 01:54:35;;;;;;;;;;;5.10;78.20;;;;;;5093039;28;19950;-88
2022/01/25 01:57:01;;;;;;;;;;;5.30;77.80;;;;;;5093666;28;19958;-88
2022/01/25 01:59:26;;;;;;;;;;;5.30;77.30;;;;;;5093216;28;19913;-87
2022/01/25 02:01:52;;;;;;;;;;;5.10;77.70;;;;;;5093569;28;20437;-88
2022/01/25 02:04:18;;;;;;;;;;;5.10;77.90;;;;;;5093855;28;19912;-88
2022/01/25 02:06:44;;;;;;;;;;;5.00;78.30;;;;;;5093440;28;20014;-88
2022/01/25 02:09:09;;;;;;;;;;;4.90;78.80;;;;;;5092987;28;20288;-87
2022/01/25 02:11:35;;;;;;;;;;;4.80;79.20;;;;;;5093339;28;19908;-87
2022/01/25 02:14:05;;;;;;;;;;;4.80;79.70;;;;;;5093404;28;19908;-88
2022/01/25 02:24:30;;;;;;;;;;;5.20;79.30;;;;;;5093317;28;19938;-88
2022/01/25 02:26:57;;;;;;;;;;;5.40;78.90;;;;;;5092958;28;20369;-88
2022/01/25 02:29:22;;;;;;;;;;;5.50;78.20;;;;;;5093122;28;19912;-88
2022/01/25 02:31:48;;;;;;;;;;;5.50;77.70;;;;;;5093239;28;19998;-88
2022/01/25 02:34:14;;;;;;;;;;;5.50;77.30;;;;;;5093175;28;20272;-88
2022/01/25 02:36:39;;;;;;;;;;;5.50;77.30;;;;;;5093204;28;19947;-88
2022/01/25 02:39:05;;;;;;;;;;;5.40;77.10;;;;;;5092856;28;19916;-88
2022/01/25 02:41:30;;;;;;;;;;;5.40;77.90;;;;;;5093143;28;19916;-88
2022/01/25 02:43:58;;;;;;;;;;;5.20;78.60;;;;;;5093345;28;19947;-88
2022/01/25 02:48:59;;;;;;;;;;;4.90;79.90;;;;;;5093057;28;19920;-88
2022/01/25 02:51:29;;;;;;;;;;;4.80;82.20;;;;;;5093059;28;19946;-88
2022/01/25 02:53:56;;;;;;;;;;;4.80;82.80;;;;;;5092895;28;19981;-88
2022/01/25 02:56:22;;;;;;;;;;;4.70;82.70;;;;;;5092939;28;19946;-88
2022/01/25 02:58:48;;;;;;;;;;;4.70;82.90;;;;;;5092678;28;19912;-88
2022/01/25 03:01:14;;;;;;;;;;;4.70;82.50;;;;;;5092552;28;19912;-88
2022/01/25 03:03:39;;;;;;;;;;;4.80;82.10;;;;;;5092906;28;19950;-88
2022/01/25 03:06:05;;;;;;;;;;;4.90;81.60;;;;;;5092814;28;19966;-88
2022/01/25 03:08:32;;;;;;;;;;;4.80;81.20;;;;;;5092515;28;20335;-88
2022/01/25 03:10:58;;;;;;;;;;;4.90;81.40;;;;;;5092837;28;20377;-89
2022/01/25 03:13:30;;;;;;;;;;;4.90;81.40;;;;;;5092857;28;19913;-88
2022/01/25 03:16:03;;;;;;;;;;;4.90;81.90;;;;;;5093131;28;19912;-88
2022/01/25 03:21:03;;;;;;;;;;;4.80;83.10;;;;;;5093088;28;20001;-88
2022/01/25 03:23:29;;;;;;;;;;;4.70;82.60;;;;;;5092405;28;19912;-88
2022/01/25 03:25:54;;;;;;;;;;;4.60;82.00;;;;;;5092462;28;19927;-87
2022/01/25 03:28:20;;;;;;;;;;;4.60;82.20;;;;;;5092215;28;19916;-88
2022/01/25 03:30:46;;;;;;;;;;;4.60;82.50;;;;;;5092639;28;19930;-88
2022/01/25 03:33:12;;;;;;;;;;;4.50;82.00;;;;;;5093365;28;19962;-88
2022/01/25 03:35:38;;;;;;;;;;;4.50;82.30;;;;;;5096354;28;19908;-88
2022/01/25 03:38:04;;;;;;;;;;;4.50;82.60;;;;;;5095994;28;19949;-88
2022/01/25 03:40:29;;;;;;;;;;;4.60;82.90;;;;;;5096248;28;19915;-88
2022/01/25 03:42:55;;;;;;;;;;;4.60;83.30;;;;;;5096219;28;20316;-88
2022/01/25 03:45:28;;;;;;;;;;;4.80;83.40;;;;;;5096096;28;19912;-88
2022/01/25 03:50:41;;;;;;;;;;;4.90;83.20;;;;;;5096299;28;19908;-88
2022/01/25 03:53:07;;;;;;;;;;;4.80;83.90;;;;;;5095968;28;20002;-88
2022/01/25 03:55:33;;;;;;;;;;;4.70;84.20;;;;;;5095993;28;20388;-88
2022/01/25 03:57:58;;;;;;;;;;;4.70;84.20;;;;;;5095636;28;19948;-87
2022/01/25 04:00:24;;;;;;;;;;;4.70;84.50;;;;;;5095815;28;19908;-87
2022/01/25 04:03:03;;;;;;;;;;;4.60;84.30;;;;;;5096380;28;19999;-88
2022/01/25 04:05:36;;;;;;;;;;;4.60;84.70;;;;;;5095951;28;19932;-88
2022/01/25 04:08:03;;;;;;;;;;;4.50;85.20;;;;;;5093768;28;19912;-88
2022/01/25 04:10:28;;;;;;;;;;;4.50;85.60;;;;;;5095618;28;19935;-88
2022/01/25 04:12:54;;;;;;;;;;;4.60;85.90;;;;;;5096161;28;20313;-88
2022/01/25 04:15:19;;;;;;;;;;;4.70;86.00;;;;;;5095543;28;20321;-88
2022/01/25 04:17:50;;;;;;;;;;;4.80;85.70;;;;;;5095132;28;19919;-88
2022/01/25 04:25:25;;;;;;;;;;;4.90;85.20;;;;;;5095322;28;19985;-88
2022/01/25 04:27:51;;;;;;;;;;;4.90;85.20;;;;;;5095210;28;19912;-88
2022/01/25 04:30:16;;;;;;;;;;;5.00;85.20;;;;;;5095554;28;19915;-88
2022/01/25 04:32:46;;;;;;;;;;;5.00;85.00;;;;;;5095548;28;20243;-87
2022/01/25 04:35:27;;;;;;;;;;;4.80;84.80;;;;;;5094873;28;19918;-87
2022/01/25 04:49:11;;;;;;;;;;;4.20;87.50;;;;;;5095178;28;20348;-88
2022/01/25 04:51:50;;;;;;;;;;;4.20;87.80;;;;;;5094649;28;19940;-88
2022/01/25 04:54:32;;;;;;;;;;;4.20;87.80;;;;;;5091286;28;19912;-88
2022/01/25 04:59:39;;;;;;;;;;;4.30;88.00;;;;;;5094727;28;20373;-88
2022/01/25 05:02:14;;;;;;;;;;;4.30;88.10;;;;;;5094670;28;20022;-88
2022/01/25 05:04:45;;;;;;;;;;;4.30;88.40;;;;;;5094839;28;19908;-88
2022/01/25 05:09:50;;;;;;;;;;;4.40;88.10;;;;;;5094328;28;20362;-87
2022/01/25 05:12:16;;;;;;;;;;;4.40;87.50;;;;;;5094775;28;19973;-88
2022/01/25 05:14:59;;;;;;;;;;;4.40;87.40;;;;;;5094381;28;20296;-88
2022/01/25 05:17:34;;;;;;;;;;;4.20;87.40;;;;;;5094679;28;19912;-87
2022/01/25 05:22:44;;;;;;;;;;;4.20;87.80;;;;;;5075150;28;19915;-88
2022/01/25 05:25:10;;;;;;;;;;;4.20;87.90;;;;;;5094316;28;19912;-88
2022/01/25 05:27:36;;;;;;;;;;;4.30;88.00;;;;;;5093722;28;19923;-88
2022/01/25 05:30:02;;;;;;;;;;;4.40;88.00;;;;;;5094121;28;19912;-88
2022/01/25 05:32:27;;;;;;;;;;;4.40;87.90;;;;;;5094087;28;19916;-88
2022/01/25 05:34:53;;;;;;;;;;;4.40;87.70;;;;;;5094026;28;20278;-88
2022/01/25 05:37:19;;;;;;;;;;;4.40;87.50;;;;;;5094015;28;19974;-88
2022/01/25 05:39:46;;;;;;;;;;;4.40;87.50;;;;;;5093709;28;19965;-87
2022/01/25 05:44:56;;;;;;;;;;;4.40;87.50;;;;;;5093670;28;19918;-88
2022/01/25 05:47:31;;;;;;;;;;;4.40;87.50;;;;;;5073399;28;20282;-87
2022/01/25 05:49:57;;;;;;;;;;;4.30;87.50;;;;;;5077085;28;19971;-88
2022/01/25 05:52:23;;;;;;;;;;;4.30;87.60;;;;;;5089027;28;19954;-87
2022/01/25 05:54:48;;;;;;;;;;;4.30;87.70;;;;;;5083421;28;19912;-87
2022/01/25 05:57:14;;;;;;;;;;;4.30;87.80;;;;;;5092889;28;20015;-87
2022/01/25 05:59:39;;;;;;;;;;;4.30;87.80;;;;;;5092903;28;19947;-88
2022/01/25 06:02:06;;;;;;;;;;;4.40;87.50;;;;;;5091044;28;20278;-87
2022/01/25 06:04:31;;;;;;;;;;;4.40;87.20;;;;;;5090490;28;19971;-88
2022/01/25 06:06:57;;;;;;;;;;;4.40;87.00;;;;;;5089958;28;19952;-88
2022/01/25 06:09:25;;;;;;;;;;;4.50;87.30;;;;;;5091341;28;19912;-88
2022/01/25 06:11:51;;;;;;;;;;;4.50;87.80;;;;;;5091942;28;20366;-88
2022/01/25 06:14:17;;;;;;;;;;;4.40;87.50;;;;;;5088303;28;19912;-88
2022/01/25 06:19:50;;;;;;;;;;;4.50;87.60;;;;;;5094331;27;19917;-88
2022/01/25 06:22:16;;;;;;;;;;;4.60;87.30;;;;;;5069241;28;20289;-88
2022/01/25 06:24:41;;;;;;;;;;;4.70;87.30;;;;;;5069290;28;19921;-88
2022/01/25 06:27:07;;;;;;;;;;;4.70;86.80;;;;;;5070953;28;19913;-88
2022/01/25 06:29:33;;;;;;;;;;;4.80;86.50;;;;;;5073085;28;19962;-88
2022/01/25 06:32:19;;;;;;;;;;;5.00;85.70;;;;;;5068384;28;19912;-88
2022/01/25 06:34:51;;;;;;;;;;;5.00;85.30;;;;;;5066705;28;20350;-88
2022/01/25 06:37:17;;;;;;;;;;;5.00;85.30;;;;;;5067033;28;19931;-88
2022/01/25 06:39:42;;;;;;;;;;;4.90;85.50;;;;;;5067831;28;19928;-88
2022/01/25 06:42:08;;;;;;;;;;;4.80;85.80;;;;;;5065778;28;19919;-87
2022/01/25 06:44:35;;;;;;;;;;;4.60;86.80;;;;;;5075500;28;19970;-87
2022/01/25 06:47:01;;;;;;;;;;;4.50;87.40;;;;;;5067041;28;20007;-88
2022/01/25 06:49:27;;;;;;;;;;;4.40;88.00;;;;;;5074131;28;19913;-88
2022/01/25 06:51:53;;;;;;;;;;;4.30;88.20;;;;;;5068981;28;19996;-88
2022/01/25 06:54:18;;;;;;;;;;;4.20;88.40;;;;;;5070078;28;19949;-88
2022/01/25 06:56:44;;;;;;;;;;;4.20;88.40;;;;;;5068814;28;20289;-88
2022/01/25 06:59:09;;;;;;;;;;;4.10;88.60;;;;;;5066900;28;19923;-88
2022/01/25 07:01:35;;;;;;;;;;;4.10;88.60;;;;;;5072591;28;19944;-88
2022/01/25 07:04:00;;;;;;;;;;;4.10;88.80;;;;;;5068662;28;19981;-88
2022/01/25 07:06:26;;;;;;;;;;;4.10;88.80;;;;;;5069209;28;19991;-88
2022/01/25 07:08:52;;;;;;;;;;;4.10;88.90;;;;;;5065958;28;19994;-88
2022/01/25 07:11:18;;;;;;;;;;;4.10;88.90;;;;;;5065375;28;19920;-89
2022/01/25 07:13:43;;;;;;;;;;;4.10;88.80;;;;;;5065709;28;20035;-88
2022/01/25 07:16:09;;;;;;;;;;;4.10;88.70;;;;;;5069813;28;20245;-88
2022/01/25 07:18:34;;;;;;;;;;;4.20;88.60;;;;;;5070434;28;20020;-88
2022/01/25 07:21:00;;;;;;;;;;;4.20;88.60;;;;;;5065452;28;19928;-88
2022/01/25 07:23:25;;;;;;;;;;;4.20;88.50;;;;;;5066021;28;20020;-88
2022/01/25 07:25:51;;;;;;;;;;;4.20;88.60;;;;;;5067138;28;19920;-88
2022/01/25 07:28:16;;;;;;;;;;;4.20;88.70;;;;;;5063558;28;19913;-89
2022/01/25 07:30:42;;;;;;;;;;;4.30;88.90;;;;;;5056193;28;20286;-88
2022/01/25 07:33:08;;;;;;;;;;;4.50;88.80;;;;;;5053888;28;19990;-88
2022/01/25 07:35:34;;;;;;;;;;;4.50;88.20;;;;;;5053137;28;19920;-87
2022/01/25 07:38:00;;;;;;;;;;;4.50;88.10;;;;;;5053288;28;19955;-88
2022/01/25 07:40:25;;;;;;;;;;;4.50;88.10;;;;;;5052999;28;19917;-88
2022/01/25 07:42:51;;;;;;;;;;;4.50;88.00;;;;;;5053001;28;19919;-88
2022/01/25 07:45:16;;;;;;;;;;;4.50;87.80;;;;;;5053394;28;19919;-88
2022/01/25 07:47:42;;;;;;;;;;;4.50;88.10;;;;;;5053970;28;20300;-87
2022/01/25 07:50:08;;;;;;;;;;;4.50;88.00;;;;;;5052671;28;19925;-87
2022/01/25 07:52:34;;;;;;;;;;;4.50;88.30;;;;;;5053209;28;20345;-88
2022/01/25 07:54:59;;;;;;;;;;;4.50;88.50;;;;;;5052275;28;19917;-88
2022/01/25 07:57:25;;;;;;;;;;;4.50;88.60;;;;;;5054194;28;19919;-88
2022/01/25 07:59:51;;;;;;;;;;;4.60;88.50;;;;;;5052543;28;19982;-88
2022/01/25 08:02:17;;;;;;;;;;;4.70;88.20;;;;;;5052291;28;19913;-87
2022/01/25 08:04:43;;;;;;;;;;;4.70;87.90;;;;;;5052953;28;19912;-88
2022/01/25 08:07:09;;;;;;;;;;;4.80;87.90;;;;;;5052627;28;19935;-87
2022/01/25 08:09:34;;;;;;;;;;;4.90;88.00;;;;;;5054248;28;19964;-88
2022/01/25 08:12:00;;;;;;;;;;;5.00;87.90;;;;;;5054066;28;20333;-88
2022/01/25 08:14:25;;;;;;;;;;;5.10;87.60;;;;;;5054801;28;20282;-88
2022/01/25 08:16:51;;;;;;;;;;;5.20;87.30;;;;;;5054648;28;19919;-88
2022/01/25 08:19:18;;;;;;;;;;;5.40;87.00;;;;;;5051591;28;19928;-88
2022/01/25 08:21:43;;;;;;;;;;;5.50;86.50;;;;;;5050155;28;19959;-88
2022/01/25 08:24:10;;;;;;;;;;;5.50;85.60;;;;;;5050643;28;19913;-88
2022/01/25 08:26:36;;;;;;;;;;;5.40;85.90;;;;;;5068703;28;19999;-88
2022/01/25 08:29:02;;;;;;;;;;;5.40;86.40;;;;;;5056185;28;20111;-88
2022/01/25 08:31:28;;;;;;;;;;;5.40;86.90;;;;;;5050631;28;19987;-88
2022/01/25 08:33:53;;;;;;;;;;;5.40;86.20;;;;;;5051886;28;19921;-88
2022/01/25 08:36:19;;;;;;;;;;;5.40;85.70;;;;;;5055525;28;20248;-88
2022/01/25 08:38:45;;;;;;;;;;;5.40;84.60;;;;;;5050168;28;20248;-88
2022/01/25 08:41:13;;;;;;;;;;;5.50;83.90;;;;;;5051487;28;20361;-88
2022/01/25 08:43:38;;;;;;;;;;;5.50;83.40;;;;;;5050001;28;19912;-88
2022/01/25 08:46:04;;;;;;;;;;;5.50;83.70;;;;;;5059996;28;19912;-88
2022/01/25 08:48:30;;;;;;;;;;;5.50;83.70;;;;;;5064140;28;19999;-88
2022/01/25 08:50:55;;;;;;;;;;;5.50;84.00;;;;;;5066636;28;19963;-88
2022/01/25 08:53:21;;;;;;;;;;;5.70;83.60;;;;;;5053923;28;19913;-88
2022/01/25 08:55:46;;;;;;;;;;;5.90;83.30;;;;;;5056327;28;19952;-88
2022/01/25 08:58:12;;;;;;;;;;;6.00;82.60;;;;;;5051552;28;19924;-88
2022/01/25 09:00:38;;;;;;;;;;;6.10;82.40;;;;;;5052236;28;19928;-88
2022/01/25 09:03:03;;;;;;;;;;;6.20;80.30;;;;;;5053999;28;20304;-88
2022/01/25 09:05:29;;;;;;;;;;;6.10;79.70;;;;;;5058336;28;20264;-88
2022/01/25 09:07:57;;;;;;;;;;;6.20;79.30;;;;;;5054052;28;20424;-88
2022/01/25 09:10:23;;;;;;;;;;;6.20;78.80;;;;;;5053449;28;19939;-88
2022/01/25 09:12:48;;;;;;;;;;;5.90;79.30;;;;;;5060480;28;19912;-88
2022/01/25 09:15:14;;;;;;;;;;;5.70;80.70;;;;;;5064667;28;20016;-88
2022/01/25 09:17:39;;;;;;;;;;;5.60;81.50;;;;;;5054628;28;19955;-88
2022/01/25 09:20:05;;;;;;;;;;;5.40;82.00;;;;;;5053941;28;19924;-88
2022/01/25 09:22:31;;;;;;;;;;;5.50;81.30;;;;;;5052153;28;20281;-88
2022/01/25 09:24:56;;;;;;;;;;;5.50;82.30;;;;;;5055996;28;20462;-87
2022/01/25 09:27:22;;;;;;;;;;;5.60;82.80;;;;;;5053159;28;19916;-88
2022/01/25 09:29:47;;;;;;;;;;;5.60;83.10;;;;;;5057183;28;20316;-88
2022/01/25 09:32:13;;;;;;;;;;;5.70;81.70;;;;;;5061524;28;20286;-88
2022/01/25 09:34:38;;;;;;;;;;;5.80;81.20;;;;;;5058989;28;19959;-88
2022/01/25 09:37:05;;;;;;;;;;;5.90;82.00;;;;;;5061548;28;19963;-88
2022/01/25 09:39:30;;;;;;;;;;;5.90;81.60;;;;;;5053485;28;19924;-88
2022/01/25 09:41:56;;;;;;;;;;;5.90;82.00;;;;;;5052286;28;19920;-88
2022/01/25 09:44:23;;;;;;;;;;;6.00;82.00;;;;;;5053657;28;20389;-88
2022/01/25 09:47:45;;;;;;;;;;;6.00;81.00;;;;;;5112922;27;19935;-88
2022/01/25 09:50:10;;;;;;;;;;;6.10;81.40;;;;;;5106717;28;19912;-88
2022/01/25 09:52:37;;;;;;;;;;;6.00;82.10;;;;;;5107299;28;19931;-88
2022/01/25 09:55:08;;;;;;;;;;;6.00;83.10;;;;;;5100415;28;19912;-88
2022/01/25 09:57:33;;;;;;;;;;;6.00;84.30;;;;;;5105213;28;19912;-88
2022/01/25 09:59:59;;;;;;;;;;;6.00;84.70;;;;;;5104818;28;20316;-88
2022/01/25 10:02:37;;;;;;;;;;;6.00;84.90;;;;;;5101975;28;19972;-88
2022/01/25 10:05:16;;;;;;;;;;;6.10;84.90;;;;;;5097561;28;19920;-88
2022/01/25 10:07:42;;;;;;;;;;;6.00;84.50;;;;;;5103890;28;19916;-88
2022/01/25 10:10:08;;;;;;;;;;;6.10;84.80;;;;;;5109147;28;19937;-88
2022/01/25 10:12:33;;;;;;;;;;;6.10;84.90;;;;;;5098238;28;19920;-88
2022/01/25 10:14:58;;;;;;;;;;;6.20;84.50;;;;;;5099990;28;19935;-88
2022/01/25 10:17:31;;;;;;;;;;;6.40;84.10;;;;;;5106131;28;19926;-88
2022/01/25 10:19:56;;;;;;;;;;;6.40;84.00;;;;;;5104184;28;20425;-88
2022/01/25 10:22:22;;;;;;;;;;;6.60;83.60;;;;;;5105720;28;20057;-88
2022/01/25 10:24:48;;;;;;;;;;;6.70;82.30;;;;;;5107827;28;20293;-88
2022/01/25 10:27:13;;;;;;;;;;;6.80;82.90;;;;;;5101618;28;19959;-88
2022/01/25 10:29:40;;;;;;;;;;;6.80;82.00;;;;;;5098709;28;20013;-89
2022/01/25 10:32:09;;;;;;;;;;;6.80;81.70;;;;;;5112434;28;19916;-88
2022/01/25 10:34:37;;;;;;;;;;;6.90;82.50;;;;;;5100333;28;19920;-88
2022/01/25 10:37:07;;;;;;;;;;;6.90;82.70;;;;;;5111356;28;19911;-88
2022/01/25 10:39:34;;;;;;;;;;;6.90;82.70;;;;;;5103711;28;19912;-88
2022/01/25 10:42:04;;;;;;;;;;;7.00;83.00;;;;;;5094711;28;20361;-88
2022/01/25 10:44:45;;;;;;;;;;;7.10;83.30;;;;;;5099231;28;19982;-88
2022/01/25 10:47:10;;;;;;;;;;;6.90;82.00;;;;;;5099526;28;20005;-88
2022/01/25 10:49:42;;;;;;;;;;;6.80;83.70;;;;;;5097655;28;19959;-88
2022/01/25 10:52:08;;;;;;;;;;;6.70;84.30;;;;;;5098740;28;20003;-88
2022/01/25 10:54:38;;;;;;;;;;;6.70;83.90;;;;;;5097501;28;20050;-88
2022/01/25 10:57:03;;;;;;;;;;;6.80;84.20;;;;;;5102792;28;19919;-88
2022/01/25 10:59:32;;;;;;;;;;;6.80;84.00;;;;;;5084116;28;19912;-88
2022/01/25 11:01:59;;;;;;;;;;;6.80;83.60;;;;;;5088965;28;19945;-88
2022/01/25 11:04:26;;;;;;;;;;;6.90;83.80;;;;;;5090590;28;19969;-88
2022/01/25 11:07:02;;;;;;;;;;;6.90;83.70;;;;;;5088285;28;19923;-88
2022/01/25 11:09:35;;;;;;;;;;;6.90;84.00;;;;;;5089149;28;19912;-88
2022/01/25 11:12:01;;;;;;;;;;;6.90;84.30;;;;;;5096333;28;20014;-88
2022/01/25 11:17:11;;;;;;;;;;;6.90;85.10;;;;;;5092906;28;19946;-88
2022/01/25 11:19:37;;;;;;;;;;;6.90;84.80;;;;;;5075144;28;19999;-88
2022/01/25 11:22:03;;;;;;;;;;;6.90;85.60;;;;;;5074796;28;19950;-88
2022/01/25 11:24:31;;;;;;;;;;;6.80;84.90;;;;;;5094406;28;19916;-88
2022/01/25 11:26:59;;;;;;;;;;;6.80;85.50;;;;;;5075189;28;20007;-88
2022/01/25 11:29:25;;;;;;;;;;;6.90;85.30;;;;;;5075330;28;20381;-87
2022/01/25 11:31:53;;;;;;;;;;;7.00;84.10;;;;;;5075277;28;19908;-88
2022/01/25 11:34:21;;;;;;;;;;;7.10;84.30;;;;;;5083855;28;20370;-88
2022/01/25 11:36:57;;;;;;;;;;;7.40;83.70;;;;;;5095415;28;19908;-88
2022/01/25 11:39:24;;;;;;;;;;;7.60;82.70;;;;;;5083849;28;20296;-88
2022/01/25 11:41:51;;;;;;;;;;;8.00;81.70;;;;;;5073809;28;19908;-88
2022/01/25 11:44:18;;;;;;;;;;;8.10;81.40;;;;;;5089809;28;19919;-88
2022/01/25 11:46:47;;;;;;;;;;;8.20;80.10;;;;;;5094675;28;20455;-88
2022/01/25 11:49:15;;;;;;;;;;;8.30;80.50;;;;;;5095218;28;19915;-88
2022/01/25 11:51:41;;;;;;;;;;;8.30;79.60;;;;;;5095085;28;19957;-88
2022/01/25 11:54:08;;;;;;;;;;;8.10;80.00;;;;;;5080156;28;19978;-88
2022/01/25 11:56:35;;;;;;;;;;;8.20;79.40;;;;;;5074781;28;19909;-88
2022/01/25 11:59:00;;;;;;;;;;;7.90;79.40;;;;;;5074741;28;19909;-88
2022/01/25 12:01:27;;;;;;;;;;;7.80;80.50;;;;;;5074655;28;20007;-88
2022/01/25 12:03:59;;;;;;;;;;;8.20;79.70;;;;;;5085492;28;20005;-88
2022/01/25 12:06:30;;;;;;;;;;;8.50;79.40;;;;;;5094798;28;19955;-88
2022/01/25 12:11:34;;;;;;;;;;;9.30;77.20;;;;;;5094904;28;19929;-88
2022/01/25 12:14:09;;;;;;;;;;;9.80;74.30;;;;;;5082390;28;19912;-88
2022/01/25 12:16:43;;;;;;;;;;;10.20;73.60;;;;;;5074310;28;19908;-88
2022/01/25 12:19:10;;;;;;;;;;;10.50;71.30;;;;;;5077125;28;19912;-88
2022/01/25 12:21:54;;;;;;;;;;;10.50;72.80;;;;;;5080838;28;19920;-88
2022/01/25 12:24:59;;;;;;;;;;;10.60;70.90;;;;;;5074859;28;19920;-88
2022/01/25 12:27:42;;;;;;;;;;;10.30;71.70;;;;;;5073647;28;19939;-88
2022/01/25 12:30:29;;;;;;;;;;;10.40;71.80;;;;;;5077799;28;19912;-88
2022/01/25 12:33:03;;;;;;;;;;;11.00;69.50;;;;;;5088638;28;19923;-88
2022/01/25 12:35:35;;;;;;;;;;;11.30;68.50;;;;;;5086265;28;19912;-88
2022/01/25 12:38:02;;;;;;;;;;;11.60;68.40;;;;;;5080655;28;19920;-89
2022/01/25 12:40:30;;;;;;;;;;;11.90;67.10;;;;;;5085200;28;19962;-88
2022/01/25 12:42:57;;;;;;;;;;;12.10;64.40;;;;;;5081833;28;19916;-88
2022/01/25 12:45:23;;;;;;;;;;;11.50;66.30;;;;;;5086844;28;19915;-88
2022/01/25 12:47:52;;;;;;;;;;;11.20;66.60;;;;;;5087760;28;19973;-88
2022/01/25 12:50:18;;;;;;;;;;;11.40;67.30;;;;;;5082592;28;19912;-89
2022/01/25 12:52:47;;;;;;;;;;;11.90;66.40;;;;;;5086671;28;19912;-88
2022/01/25 12:55:13;;;;;;;;;;;11.60;65.00;;;;;;5083105;28;20320;-88
2022/01/25 12:57:48;;;;;;;;;;;10.80;68.70;;;;;;5083945;28;19912;-88
2022/01/25 13:00:14;;;;;;;;;;;10.20;68.50;;;;;;5090470;28;19958;-88
2022/01/25 13:02:40;;;;;;;;;;;9.50;72.00;;;;;;5080270;28;19924;-88
2022/01/25 13:05:32;;;;;;;;;;;9.20;73.30;;;;;;5081217;28;19920;-88
2022/01/25 13:08:16;;;;;;;;;;;9.10;73.80;;;;;;5086455;28;19938;-88
2022/01/25 13:10:42;;;;;;;;;;;9.30;73.90;;;;;;5085956;28;19919;-88
2022/01/25 13:13:28;;;;;;;;;;;9.60;72.90;;;;;;5084768;28;19916;-88
2022/01/25 13:15:56;;;;;;;;;;;9.30;73.10;;;;;;5081402;28;19912;-88
2022/01/25 13:18:26;;;;;;;;;;;9.00;74.50;;;;;;5076638;28;19962;-88
2022/01/25 13:21:00;;;;;;;;;;;8.80;75.20;;;;;;5083735;28;19927;-88
2022/01/25 13:23:26;;;;;;;;;;;9.10;75.40;;;;;;5087127;28;19994;-88
2022/01/25 13:26:09;;;;;;;;;;;9.40;73.10;;;;;;5088639;28;20346;-88
2022/01/25 13:31:15;;;;;;;;;;;9.00;74.90;;;;;;5088118;28;20007;-88
2022/01/25 13:33:40;;;;;;;;;;;9.00;75.20;;;;;;5084362;28;19962;-88
2022/01/25 13:36:08;;;;;;;;;;;9.00;74.90;;;;;;5085905;28;20280;-88
2022/01/25 13:38:36;;;;;;;;;;;8.80;75.00;;;;;;5083692;28;19920;-88
2022/01/25 13:41:22;;;;;;;;;;;8.50;75.70;;;;;;5083868;28;19912;-88
2022/01/25 13:46:25;;;;;;;;;;;8.30;77.30;;;;;;5086256;28;19920;-88
2022/01/25 13:48:54;;;;;;;;;;;8.20;78.20;;;;;;5087562;28;19919;-88
2022/01/25 13:51:21;;;;;;;;;;;8.00;78.90;;;;;;5086250;28;19920;-88
2022/01/25 13:53:54;;;;;;;;;;;7.90;79.10;;;;;;5081954;28;19958;-88
2022/01/25 13:56:20;;;;;;;;;;;7.90;79.50;;;;;;5088085;28;19912;-88
2022/01/25 13:58:47;;;;;;;;;;;7.90;79.30;;;;;;5088960;28;19939;-88
2022/01/25 14:01:13;;;;;;;;;;;8.00;79.60;;;;;;5096417;28;20007;-88
2022/01/25 14:03:41;;;;;;;;;;;7.90;79.80;;;;;;5087131;28;19912;-88
2022/01/25 14:06:27;;;;;;;;;;;7.70;80.00;;;;;;5084522;28;19928;-88
2022/01/25 14:09:06;;;;;;;;;;;7.70;80.20;;;;;;5083605;28;19957;-88
2022/01/25 14:21:32;;;;;;;;;;;7.50;80.70;;;;;;5090654;28;19930;-88
2022/01/25 14:22:42;;;;;;;;;;;7.20;82.20;;;;;;5074552;28;20017;-88
2022/01/25 14:25:07;;;;;;;;;;;7.20;82.00;;;;;;5074087;28;19913;-88
2022/01/25 14:27:44;;;;;;;;;;;7.10;82.20;;;;;;5074440;28;19923;-88
2022/01/25 14:30:10;;;;;;;;;;;7.10;82.20;;;;;;5083232;28;19912;-88
2022/01/25 14:32:36;;;;;;;;;;;7.00;82.30;;;;;;5075675;28;19920;-88
2022/01/25 14:35:03;;;;;;;;;;;7.00;82.60;;;;;;5086201;28;19913;-88
2022/01/25 14:37:29;;;;;;;;;;;6.90;82.50;;;;;;5080131;28;19919;-88
2022/01/25 14:40:03;;;;;;;;;;;6.90;82.40;;;;;;5087461;28;20286;-88
2022/01/25 14:42:29;;;;;;;;;;;6.90;82.50;;;;;;5084653;28;19935;-88
2022/01/25 14:44:59;;;;;;;;;;;6.80;83.40;;;;;;5080424;28;20282;-88
2022/01/25 14:47:31;;;;;;;;;;;6.70;83.00;;;;;;5089220;28;19970;-88
2022/01/25 14:49:59;;;;;;;;;;;6.70;83.50;;;;;;5087370;28;19923;-88
2022/01/25 14:52:25;;;;;;;;;;;6.60;83.50;;;;;;5086141;28;19946;-88
2022/01/25 14:54:50;;;;;;;;;;;6.50;83.50;;;;;;5084931;28;19923;-88
2022/01/25 14:57:19;;;;;;;;;;;6.50;83.80;;;;;;5080809;28;19943;-88
2022/01/25 14:59:48;;;;;;;;;;;6.50;83.70;;;;;;5088765;28;19919;-88
2022/01/25 15:02:18;;;;;;;;;;;6.40;83.50;;;;;;5083813;28;19966;-88
2022/01/25 15:04:45;;;;;;;;;;;6.40;83.50;;;;;;5090947;28;20369;-88
2022/01/25 15:07:15;;;;;;;;;;;6.30;84.20;;;;;;5092397;28;19916;-88
2022/01/25 15:09:49;;;;;;;;;;;6.20;84.00;;;;;;5078773;28;19913;-88
2022/01/25 15:12:18;;;;;;;;;;;6.20;84.00;;;;;;5088303;28;19924;-88
2022/01/25 15:14:54;;;;;;;;;;;6.10;84.40;;;;;;5088568;28;20377;-88
2022/01/25 15:17:20;;;;;;;;;;;6.10;84.30;;;;;;5079189;28;20344;-88
2022/01/25 15:19:45;;;;;;;;;;;6.00;84.60;;;;;;5087682;28;19920;-88
2022/01/25 15:22:12;;;;;;;;;;;6.00;84.70;;;;;;5081248;28;19920;-88
2022/01/25 15:24:41;;;;;;;;;;;6.00;84.90;;;;;;5085576;28;19919;-88
2022/01/25 15:27:07;;;;;;;;;;;5.90;85.10;;;;;;5085022;28;20406;-88
2022/01/25 15:29:33;;;;;;;;;;;5.90;85.00;;;;;;5087615;28;19923;-88
2022/01/25 15:31:59;;;;;;;;;;;5.90;85.30;;;;;;5076690;28;20003;-88
2022/01/25 15:34:25;;;;;;;;;;;5.90;85.30;;;;;;5075977;28;20316;-88
2022/01/25 15:36:51;;;;;;;;;;;5.90;85.50;;;;;;5079606;28;19919;-88
2022/01/25 15:39:17;;;;;;;;;;;5.80;85.30;;;;;;5080287;28;19924;-88
2022/01/25 15:41:45;;;;;;;;;;;5.70;85.40;;;;;;5076892;28;20134;-87
2022/01/25 15:44:11;;;;;;;;;;;5.60;85.70;;;;;;5085551;28;19912;-87
2022/01/25 15:49:12;;;;;;;;;;;5.50;86.40;;;;;;5084915;28;20011;-87
2022/01/25 15:51:37;;;;;;;;;;;5.50;86.60;;;;;;5081527;28;20003;-88
2022/01/25 15:54:03;;;;;;;;;;;5.50;86.60;;;;;;5090353;28;20278;-87
2022/01/25 15:56:29;;;;;;;;;;;5.40;86.80;;;;;;5082958;28;19969;-87
2022/01/25 15:58:54;;;;;;;;;;;5.40;87.00;;;;;;5086633;28;19913;-87
2022/01/25 16:01:20;;;;;;;;;;;5.40;87.30;;;;;;5078397;28;19919;-87
2022/01/25 16:03:46;;;;;;;;;;;5.30;87.60;;;;;;5077391;28;19916;-87
2022/01/25 16:06:11;;;;;;;;;;;5.20;87.50;;;;;;5089635;28;19916;-87
2022/01/25 16:08:38;;;;;;;;;;;5.20;87.80;;;;;;5082741;28;19958;-88
2022/01/25 16:11:07;;;;;;;;;;;5.20;88.00;;;;;;5084467;28;20362;-87
2022/01/25 16:13:32;;;;;;;;;;;5.10;88.00;;;;;;5084154;28;19916;-87
2022/01/25 16:15:58;;;;;;;;;;;5.20;88.20;;;;;;5081821;28;19966;-87
2022/01/25 16:18:23;;;;;;;;;;;5.20;88.10;;;;;;5083713;28;19912;-87
2022/01/25 16:20:49;;;;;;;;;;;5.10;88.20;;;;;;5084480;28;19918;-87
2022/01/25 16:23:15;;;;;;;;;;;5.00;88.20;;;;;;5082613;28;19912;-87
2022/01/25 16:25:41;;;;;;;;;;;5.00;88.40;;;;;;5079038;28;20336;-88
2022/01/25 16:28:06;;;;;;;;;;;5.00;88.50;;;;;;5078854;28;20301;-87
2022/01/25 16:30:33;;;;;;;;;;;4.90;88.80;;;;;;5076486;28;19919;-87
2022/01/25 16:32:58;;;;;;;;;;;4.80;88.90;;;;;;5078010;28;19920;-87
2022/01/25 16:35:24;;;;;;;;;;;4.80;89.20;;;;;;5081969;28;20290;-87